CheckWX is a tool to help pilots better visualize weather data.  It is not intended as a substitute for an official pre-flight weather briefing.

14:23:10 UTC

KGKT METAR
Gatlinburg-Pigeon Forge Airport
Sevierville, Tennessee, USA
Current

48 mins ago

KGKT 161335Z AUTO 00000KT 10SM CLR 26/20 A3016 RMK A01
Observed
Jul-16 @ 13:35 UTC
Visibility
10 SM
Flight Rules
VFR
Cloud Levels
  • Clear skies
Temperature
26°C / 79°F
Dewpoint
20°C / 68°F
Humidity
70%
Altimeter
30.16" Hg
Pressure
1021.32 hPa
Previous

1 hour ago

KGKT 161315Z AUTO 00000KT 10SM CLR 25/20 A3016 RMK A01
Observed
Jul-16 @ 13:15 UTC
Visibility
10 SM
Flight Rules
VFR
Cloud Levels
  • Clear skies
Temperature
25°C / 77°F
Dewpoint
20°C / 68°F
Humidity
74%
Altimeter
30.16" Hg
Pressure
1021.32 hPa
Previous

1 hour ago

KGKT 161255Z AUTO 00000KT 10SM CLR 24/20 A3016 RMK A01
Observed
Jul-16 @ 12:55 UTC
Visibility
10 SM
Flight Rules
VFR
Cloud Levels
  • Clear skies
Temperature
24°C / 75°F
Dewpoint
20°C / 68°F
Humidity
78%
Altimeter
30.16" Hg
Pressure
1021.32 hPa